WEATHER DATA

YESTERDAY
Time Temp. Dewp. Hum. Wind dir Wind speed Wind gust Bar. 1h Prec. 24h Prec.
00:02 14 10.4 79 1007.2 0.3030 0.0000
00:22 13.7 10.1 79 1007.2 0.2020 0.0000
00:32 13.6 9.8 78 1006.9 0.1010 0.0000
00:42 13.5 9.7 78 1007.1 0.1010 0.0000
00:52 13.5 9.7 78 1007.1 0.0000 0.0000
01:12 13.4 9.5 77 1007.2 0.0000 0.0000
01:22 13.3 9.4 77 1007.1 0.0000 0.0000
01:33 13.1 9.4 78 1007.1 0.0000 0.0000
01:42 12.8 9.1 78 1007.2 0.0000 0.0000
02:03 12.7 9.3 80 1007.5 0.0000 0.0000
02:12 12.7 9.3 80 1007.6 0.0000 0.0000
02:22 12.7 9.3 80 1007.5 0.2020 0.2000
02:32 12.7 9.3 80 1007.6 0.2020 0.2000
02:43 12.6 9.1 79 1007.2 0.2020 0.2000
03:02 11.9 8.4 79 1007.2 0.2020 0.2000
03:13 11.6 8.1 79 1007 0.0000 0.2000
03:23 11.4 8.1 80 1006.9 0.0000 0.2000
03:32 11.2 8.1 81 1007 0.0000 0.2000
03:43 11.2 8.1 81 1007.1 0.0000 0.2000
03:53 11.2 8.4 83 1007 0.0000 0.2000
04:02 11.6 8.8 83 1007 0.0000 0.2000
04:12 11.7 8.7 82 1006.7 0.0000 0.2000
04:23 11.9 8.9 82 1006.7 0.0000 0.2000
04:33 12.1 9.1 82 1006.9 0.0000 0.2000
04:42 12.1 9.1 82 1006.5 0.0000 0.2000
04:53 12.1 9.1 82 1006.5 0.0000 0.2000
05:03 12.1 9.1 82 1006.2 0.0000 0.2000
05:13 12.1 8.9 81 1006.5 0.0000 0.2000
05:23 12 8.8 81 1006.7 0.0000 0.2000
05:33 12.2 9.2 82 1006.6 0.0000 0.2000
05:43 12.5 9.5 82 1006.5 0.0000 0.2000
05:53 12.7 9.5 81 1006.5 0.0000 0.2000
06:03 12.9 9.5 80 1006.4 0.0000 0.2000
06:13 13 9.6 80 1006.5 0.0000 0.2000
06:23 13.1 9.7 80 1006.5 0.0000 0.2000
06:33 13.2 9.8 80 1006.5 0.0000 0.2000
06:43 13.2 9.8 80 1006.6 0.0000 0.2000
06:53 13.3 9.5 78 1006.3 0.0000 0.2000
07:03 13.3 9 75 1006.2 0.0000 0.2000
07:14 13.5 9 74 1006.1 0.0000 0.2000
07:24 14 9.2 73 1006.1 0.0000 0.2000
07:33 15 9.4 69 1006.1 0.0000 0.2000
07:43 16.1 9.5 65 1006.1 0.0000 0.2000
07:54 16.6 9.1 61 1006 0.0000 0.2000
08:04 17.1 9.3 60 1005.8 0.0000 0.2000
08:14 17.9 9 56 1005.7 0.0000 0.2000
08:24 18.5 8.8 53 1005.7 0.0000 0.2000
08:34 18.9 9.4 54 1005.5 0.0000 0.2000
08:44 19.1 8.7 51 1005.5 0.0000 0.2000
08:54 19.3 8.6 50 1005.5 0.0000 0.2000
09:05 19.8 9.7 52 1005.6 0.0000 0.2000
09:15 19.9 10.3 54 1005.6 0.0000 0.2000
09:24 19.6 9.5 52 1005.5 0.0000 0.2000
09:35 19 9.8 55 1005.3 0.0000 0.2000
09:45 19.1 9 52 1005.5 0.0000 0.2000
09:55 19.3 9.8 54 1005.6 0.0000 0.2000
10:04 19.4 9.6 53 1005.6 0.0000 0.2000
10:15 19.4 9 51 1005.6 0.0000 0.2000
10:25 19.3 8.9 51 1005.4 0.0000 0.2000
10:35 19.1 8.4 50 1005.5 0.0000 0.2000
10:45 18.9 8.6 51 1005.7 0.0000 0.2000
10:55 18.7 8.7 52 1005.6 0.0000 0.2000
11:05 18.5 8.2 51 1005.8 0.0000 0.2000
11:15 18.3 8.6 53 1006 0.0000 0.2000
11:25 18.2 8.5 53 1005.9 0.0000 0.2000
11:35 18.5 8.8 53 1005.8 0.0000 0.2000
11:45 19 8.6 51 1005.8 0.0000 0.2000
11:56 19.6 9.2 51 1005.8 0.0000 0.2000
12:05 20 8.7 48 1005.7 0.0000 0.2000
12:15 20.4 9 48 1005.9 0.0000 0.2000
12:25 20 9.6 51 1006 0.0000 0.2000
12:36 18.5 9.8 57 1006.3 0.0000 0.2000
12:46 18 9.9 59 1006.2 0.0000 0.2000
12:55 17.9 9.8 59 1006.3 0.0000 0.2000
13:06 17.9 9 56 1006.4 0.0000 0.2000
13:16 17.9 8.5 54 1006.3 0.0000 0.2000
13:25 17.9 8.7 55 1006.5 0.0000 0.2000
13:36 17.8 8.6 55 1006.5 0.0000 0.2000
13:46 18.1 8.7 54 1006.4 0.0000 0.2000
13:56 18.1 8.4 53 1006.4 0.0000 0.2000
14:05 18.3 8.8 54 1006.5 0.0000 0.2000
14:16 18.8 9.3 54 1006.5 0.0000 0.2000
14:26 19.2 8.8 51 1006.4 0.0000 0.2000
14:36 19.2 9.1 52 1006.4 0.0000 0.2000
14:46 19 10 56 1006.5 0.0000 0.2000
14:56 18.5 9.6 56 1006.4 0.0000 0.2000
15:06 18.2 9.8 58 1006.3 0.0000 0.2000
15:16 18 9.9 59 1006.3 0.0000 0.2000
15:26 17.8 9.9 60 1006.6 0.0000 0.2000
15:36 17.5 9.4 59 1006.6 0.0000 0.2000
15:46 17 9.9 63 1006.6 0.4040 0.6000
15:57 16.6 10.2 66 1006.6 0.4040 0.6000
16:06 16.4 10 66 1006.7 0.4040 0.6000
16:16 16.2 9.8 66 1006.7 0.4040 0.6000
16:26 16 9.7 66 1006.6 0.4040 0.6000
16:37 16 10.1 68 1006.5 0.2020 0.6000
16:47 16.1 10.2 68 1006.4 0.0000 0.6000
16:56 16.5 9.9 65 1006.4 0.0000 0.6000
17:07 16.7 9.4 62 1006.4 0.0000 0.6000
17:17 17 9.7 62 1006.3 0.0000 0.6000
17:26 17 9.7 62 1006.2 0.0000 0.6000
17:36 16.8 9.2 61 1006.2 0.0000 0.6000
17:47 16.7 9.4 62 1006.2 0.0000 0.6000
17:57 16.5 9.2 62 1006.2 0.0000 0.6000
18:06 16.2 9.2 63 1006.2 0.0000 0.6000
18:28 15.9 10 68 221 0.3 0.8 1006 0.0000 0.6000
18:37 15.7 10 69 222 0.6 1.4 1005.9 0.0000 0.6000
18:48 15.6 9.9 69 223 0.8 1.4 1005.7 0.0000 0.6000
18:58 15.4 9.7 69 90 0.3 0.6 1005.8 0.0000 0.6000
19:08 15.2 9.3 68 90 0.3 0.6 1005.8 0.0000 0.6000
19:17 15.2 9.3 68 90 0.6 1.1 1005.7 0.0000 0.6000
19:28 15.1 9.2 68 90 0.6 1.1 1006 0.0000 0.6000
19:38 15 9.1 68 57 0.6 1.1 1006 0.0000 0.6000
19:48 14.9 9.5 70 321 0.8 1.9 1006.3 0.1010 0.7000
19:58 14.8 9.6 71 270 0.8 1.9 1006.5 0.3030 0.9000
20:08 14.7 9.9 73 270 0.8 2.2 1006.8 1.0100 1.6000
20:18 14.4 9.8 74 284 1.1 2.5 1006.6 1.7170 2.3000
20:28 14 9.6 75 298 1.1 2.5 1006.1 2.1210 2.7000
20:38 13.7 9.6 76 294 0.8 2.5 1006.2 2.1210 2.7000
20:48 13.4 9.3 76 312 1.1 2.2 1006.1 2.0200 2.7000
20:58 13.3 9.4 77 294 1.1 2.5 1006.1 1.5150 2.7000
21:09 13.2 9.5 78 303 1.1 2.8 1006.3 1.1110 2.7000
21:18 13.1 9.4 78 296 1.1 2.8 1006.3 0.4040 2.7000
21:28 13 9.3 78 309 1.1 2.2 1006.3 0.0000 2.7000
21:38 13 9.4 79 303 1.1 2.2 1006.4 0.0000 2.7000
21:49 13 9.3 78 279 1.1 1.9 1006.7 0.1010 2.8000
21:58 12.9 9.2 78 270 0.8 1.9 1006.8 0.4040 3.1000
22:08 12.8 8.9 77 270 0.8 1.7 1006 0.5050 3.2000
22:19 12.7 8.6 76 252 0.8 1.9 1006.2 0.5050 3.2000
22:29 12.4 8.3 76 242 0.8 1.9 1006.3 0.5050 3.2000
22:38 12.3 8.2 76 255 0.8 1.4 1006.3 0.5050 3.2000
22:49 12.2 8.1 76 234 0.8 1.7 1006.4 0.4040 3.2000
22:59 12 8.1 77 251 0.8 1.4 1006.4 0.1010 3.2000
23:08 11.9 8 77 236 0.8 1.7 1006.3 0.0000 3.2000
23:18 11.8 7.9 77 227 0.8 1.4 1006.4 0.0000 3.2000
23:29 11.6 7.9 78 270 0.8 1.4 1006.5 0.0000 3.2000
23:39 11.5 8 79 239 0.6 1.1 1006.6 0.0000 3.2000
23:48 11.5 8.2 80 270 0.6 1.4 1006.6 0.2020 3.4000

DAY STATISTIC

2019-06-18
TEMPERATURE
AVERAGE
15.4
HIGH
20.4
12:15
LOW
11.2
03:32
PRESSURE
AVERAGE
1006.3
HIGH
1007.6
02:12
LOW
1005.3
09:35
DEWPOINT
AVERAGE
9.2
HIGH
10.4
00:02
LOW
7.9
23:18
HUMIDITY
AVERAGE
68
HIGH
83
03:53
LOW
48
12:05
WIND SPEED
AVERAGE
0.8
HIGH
1.1
20:18
WIND GUST
AVERAGE
1.7
HIGH
2.8
21:09
WIND DIRECTION
PREVAILING
W
33.3%
N
0.0
NE
3.0
E
12.1
SE
0.0
S
0.0
SW
24.2
W
33.3
NW
27.3
PRECIPITATION
RAIN HOUR
2.1
RAIN DAY
3.4
TEMPERATURE (°C)
LOW
11.2
HIGH
20.4
AVERAGE
15.4
PRESSURE (hpa)
LOW
1005.3
HIGH
1007.6
AVERAGE
1006.3
DEVICE